createdAt,value
2022-12-14T00:00:26.632Z,18.60
2022-12-14T00:01:26.599Z,18.20
2022-12-14T00:02:26.614Z,18.00
2022-12-14T00:03:26.683Z,17.70
2022-12-14T00:04:26.576Z,17.20
2022-12-14T00:05:26.554Z,18.40
2022-12-14T00:06:26.545Z,18.40
2022-12-14T00:07:26.538Z,17.50
2022-12-14T00:08:26.936Z,18.10
2022-12-14T00:09:26.531Z,17.60
2022-12-14T00:10:26.508Z,17.40
2022-12-14T00:11:26.495Z,18.40
2022-12-14T00:12:26.496Z,17.60
2022-12-14T00:13:26.463Z,18.10
2022-12-14T00:14:26.482Z,18.30
2022-12-14T00:15:26.444Z,18.00
2022-12-14T00:16:26.430Z,18.00
2022-12-14T00:17:26.425Z,17.60
2022-12-14T00:18:26.735Z,17.00
2022-12-14T00:19:26.405Z,17.40
2022-12-14T00:20:26.415Z,16.70
2022-12-14T00:21:26.400Z,17.20
2022-12-14T00:22:26.370Z,17.20
2022-12-14T00:23:26.367Z,16.60
2022-12-14T00:24:26.353Z,16.70
2022-12-14T00:25:26.367Z,17.10
2022-12-14T00:26:26.356Z,17.20
2022-12-14T00:27:26.318Z,16.90
2022-12-14T00:28:26.656Z,17.30
2022-12-14T00:29:26.307Z,17.60
2022-12-14T00:30:26.281Z,18.20
2022-12-14T00:31:26.350Z,17.80
2022-12-14T00:32:26.270Z,17.40
2022-12-14T00:33:26.254Z,16.60
2022-12-14T00:34:26.249Z,16.80
2022-12-14T00:35:26.232Z,16.20
2022-12-14T00:36:26.236Z,16.20
2022-12-14T00:37:26.228Z,16.80
2022-12-14T00:38:26.609Z,16.90
2022-12-14T00:39:26.758Z,15.90
2022-12-14T00:40:26.175Z,16.20
2022-12-14T00:41:26.170Z,16.20
2022-12-14T00:42:26.163Z,15.80
2022-12-14T00:43:26.177Z,15.10
2022-12-14T00:44:26.142Z,15.70
2022-12-14T00:45:26.128Z,15.30
2022-12-14T00:46:26.140Z,15.40
2022-12-14T00:47:26.114Z,15.30
2022-12-14T00:48:26.665Z,16.50
2022-12-14T00:49:26.111Z,15.50
2022-12-14T00:50:26.075Z,15.10
2022-12-14T00:51:26.068Z,16.00
2022-12-14T00:52:26.052Z,14.50
2022-12-14T00:53:26.060Z,16.10
2022-12-14T00:54:26.027Z,14.90
2022-12-14T00:55:26.041Z,14.80
2022-12-14T00:56:26.007Z,14.40
2022-12-14T00:57:25.992Z,14.70
2022-12-14T00:58:26.184Z,14.00
2022-12-14T00:59:27.459Z,14.10
2022-12-14T01:00:25.979Z,14.30
2022-12-14T01:01:26.105Z,14.40
2022-12-14T01:02:26.081Z,15.20
2022-12-14T01:03:26.380Z,14.50
2022-12-14T01:04:25.929Z,14.00
2022-12-14T01:05:25.907Z,14.70
2022-12-14T01:06:25.907Z,14.10
2022-12-14T01:07:25.902Z,15.00
2022-12-14T01:08:25.894Z,13.60
2022-12-14T01:09:25.861Z,15.20
2022-12-14T01:10:25.856Z,14.10
2022-12-14T01:11:25.854Z,14.50
2022-12-14T01:12:25.851Z,13.70
2022-12-14T01:13:26.175Z,13.10
2022-12-14T01:14:25.814Z,13.00
2022-12-14T01:15:25.807Z,13.30
2022-12-14T01:16:25.810Z,13.60
2022-12-14T01:17:25.793Z,13.90
2022-12-14T01:18:25.787Z,14.20
2022-12-14T01:19:25.767Z,14.20
2022-12-14T01:20:25.750Z,13.70
2022-12-14T01:21:25.763Z,14.10
2022-12-14T01:22:25.738Z,13.00
2022-12-14T01:23:26.151Z,13.70
2022-12-14T01:24:25.703Z,13.60
2022-12-14T01:25:25.706Z,14.40
2022-12-14T01:26:25.699Z,13.40
2022-12-14T01:27:25.693Z,12.80
2022-12-14T01:28:25.666Z,12.70
2022-12-14T01:29:25.672Z,12.90
2022-12-14T01:30:25.651Z,13.40
2022-12-14T01:31:25.686Z,13.50
2022-12-14T01:32:25.633Z,13.00
2022-12-14T01:33:25.937Z,12.90
2022-12-14T01:34:25.601Z,12.60
2022-12-14T01:35:25.615Z,12.60
2022-12-14T01:36:25.594Z,12.70
2022-12-14T01:37:25.577Z,12.70
2022-12-14T01:38:25.559Z,13.80
2022-12-14T01:39:25.554Z,13.20
2022-12-14T01:40:25.560Z,13.30
2022-12-14T01:41:25.527Z,13.30
2022-12-14T01:42:25.518Z,12.50
2022-12-14T01:43:25.852Z,12.30
2022-12-14T01:44:25.507Z,12.50
2022-12-14T01:45:25.489Z,13.40
2022-12-14T01:46:25.517Z,14.00
2022-12-14T01:47:25.460Z,13.80
2022-12-14T01:48:25.463Z,14.20
2022-12-14T01:49:25.450Z,12.80
2022-12-14T01:50:25.437Z,12.80
2022-12-14T01:51:25.424Z,13.00
2022-12-14T01:52:25.421Z,12.30
2022-12-14T01:53:25.745Z,12.90
2022-12-14T01:54:25.383Z,12.50
2022-12-14T01:55:25.379Z,12.50
2022-12-14T01:56:25.367Z,11.70
2022-12-14T01:57:25.356Z,12.70
2022-12-14T01:58:25.357Z,13.10
2022-12-14T01:59:25.329Z,12.70
2022-12-14T02:00:25.331Z,11.50
2022-12-14T02:01:25.360Z,11.80
2022-12-14T02:02:25.398Z,12.40
2022-12-14T02:03:25.824Z,12.20
2022-12-14T02:04:25.272Z,12.40
2022-12-14T02:05:25.264Z,12.80
2022-12-14T02:06:25.249Z,12.20
2022-12-14T02:07:25.248Z,11.20
2022-12-14T02:08:25.250Z,12.00
2022-12-14T02:09:25.220Z,12.30
2022-12-14T02:10:25.206Z,12.40
2022-12-14T02:11:25.202Z,12.30
2022-12-14T02:12:25.198Z,11.30
2022-12-14T02:13:25.545Z,12.20
2022-12-14T02:14:25.186Z,12.00
2022-12-14T02:15:25.163Z,10.60
2022-12-14T02:16:25.178Z,11.40
2022-12-14T02:17:25.139Z,12.50
2022-12-14T02:18:25.126Z,11.90
2022-12-14T02:19:25.129Z,11.60
2022-12-14T02:20:25.103Z,12.10
2022-12-14T02:21:25.165Z,11.10
2022-12-14T02:22:25.079Z,11.10
2022-12-14T02:23:25.563Z,11.20
2022-12-14T02:24:25.074Z,11.20
2022-12-14T02:25:25.100Z,11.10
2022-12-14T02:26:25.044Z,11.60
2022-12-14T02:27:25.028Z,12.10
2022-12-14T02:28:25.021Z,11.90
2022-12-14T02:29:25.028Z,11.20
2022-12-14T02:30:25.000Z,11.10
2022-12-14T02:31:25.008Z,10.90
2022-12-14T02:32:24.972Z,10.70
2022-12-14T02:33:25.330Z,10.70
2022-12-14T02:34:24.975Z,11.10
2022-12-14T02:35:24.938Z,11.40
2022-12-14T02:36:24.938Z,11.80
2022-12-14T02:37:24.922Z,11.30
2022-12-14T02:38:24.910Z,11.30
2022-12-14T02:39:24.932Z,11.30
2022-12-14T02:40:24.887Z,11.10
2022-12-14T02:41:24.876Z,11.10
2022-12-14T02:42:24.866Z,10.70
2022-12-14T02:43:25.454Z,10.50
2022-12-14T02:44:24.844Z,10.50
2022-12-14T02:45:24.854Z,11.30
2022-12-14T02:46:24.858Z,11.00
2022-12-14T02:47:24.810Z,11.10
2022-12-14T02:48:24.799Z,10.60
2022-12-14T02:49:24.797Z,10.90
2022-12-14T02:50:24.807Z,11.70
2022-12-14T02:51:24.781Z,10.00
2022-12-14T02:52:24.769Z,10.90
2022-12-14T02:53:25.115Z,9.80
2022-12-14T02:54:24.740Z,10.30
2022-12-14T02:55:24.745Z,10.20
2022-12-14T02:56:24.716Z,10.50
2022-12-14T02:57:24.706Z,10.30
2022-12-14T02:58:24.696Z,9.80
2022-12-14T02:59:24.680Z,10.20
2022-12-14T03:00:24.698Z,10.40
2022-12-14T03:01:24.779Z,11.50
2022-12-14T03:02:24.803Z,11.30
2022-12-14T03:03:24.942Z,10.20
2022-12-14T03:04:24.638Z,10.90
2022-12-14T03:05:24.645Z,10.40
2022-12-14T03:06:24.612Z,10.20
2022-12-14T03:07:24.594Z,10.40
2022-12-14T03:08:24.586Z,10.60
2022-12-14T03:09:24.586Z,10.80
2022-12-14T03:10:24.568Z,10.30
2022-12-14T03:11:24.571Z,10.80
2022-12-14T03:12:24.542Z,10.50
2022-12-14T03:13:25.184Z,10.60
2022-12-14T03:14:24.524Z,10.10
2022-12-14T03:15:24.519Z,11.10
2022-12-14T03:16:24.579Z,10.80
2022-12-14T03:17:24.496Z,11.20
2022-12-14T03:18:24.482Z,10.70
2022-12-14T03:19:24.466Z,12.30
2022-12-14T03:20:24.465Z,10.40
2022-12-14T03:21:24.466Z,10.90
2022-12-14T03:22:24.455Z,11.30
2022-12-14T03:23:24.898Z,11.30
2022-12-14T03:24:24.418Z,10.80
2022-12-14T03:25:24.410Z,11.10
2022-12-14T03:26:24.403Z,11.60
2022-12-14T03:27:24.375Z,11.30
2022-12-14T03:28:24.440Z,11.00
2022-12-14T03:29:24.361Z,11.20
2022-12-14T03:30:44.315Z,11.10
2022-12-14T03:31:24.372Z,10.60
2022-12-14T03:32:24.336Z,10.90
2022-12-14T03:33:24.544Z,10.90
2022-12-14T03:34:24.314Z,11.10
2022-12-14T03:35:24.297Z,11.30
2022-12-14T03:36:24.290Z,10.60
2022-12-14T03:37:24.277Z,11.00
2022-12-14T03:38:24.274Z,10.50
2022-12-14T03:39:24.274Z,9.80
2022-12-14T03:40:24.247Z,10.40
2022-12-14T03:41:24.261Z,10.80
2022-12-14T03:42:24.228Z,11.10
2022-12-14T03:43:24.429Z,10.70
2022-12-14T03:44:24.220Z,10.70
2022-12-14T03:45:24.256Z,10.70
2022-12-14T03:46:24.195Z,11.00
2022-12-14T03:47:24.174Z,10.70
2022-12-14T03:48:24.172Z,10.50
2022-12-14T03:49:24.161Z,9.50
2022-12-14T03:50:24.158Z,10.00
2022-12-14T03:51:24.126Z,9.50
2022-12-14T03:52:24.121Z,10.50
2022-12-14T03:53:24.280Z,9.30
2022-12-14T03:54:24.096Z,9.60
2022-12-14T03:55:24.106Z,9.90
2022-12-14T03:56:24.076Z,9.50
2022-12-14T03:57:24.070Z,9.80
2022-12-14T03:58:24.057Z,9.80
2022-12-14T03:59:24.045Z,9.70
2022-12-14T04:00:24.037Z,9.30
2022-12-14T04:01:24.154Z,9.20
2022-12-14T04:02:24.158Z,9.00
2022-12-14T04:03:24.134Z,9.60
2022-12-14T04:04:23.979Z,8.90
2022-12-14T04:05:23.982Z,8.90
2022-12-14T04:06:23.984Z,8.70
2022-12-14T04:07:23.966Z,8.60
2022-12-14T04:08:30.510Z,8.50
2022-12-14T04:09:23.939Z,8.50
2022-12-14T04:10:23.947Z,8.30
2022-12-14T04:11:23.938Z,8.50
2022-12-14T04:12:23.907Z,8.80
2022-12-14T04:13:24.200Z,8.70
2022-12-14T04:14:23.887Z,8.20
2022-12-14T04:15:23.904Z,7.80
2022-12-14T04:16:23.967Z,8.10
2022-12-14T04:17:23.856Z,7.40
2022-12-14T04:18:23.856Z,7.90
2022-12-14T04:19:23.832Z,8.30
2022-12-14T04:20:23.816Z,8.20
2022-12-14T04:21:23.813Z,8.00
2022-12-14T04:22:23.810Z,8.80
2022-12-14T04:23:24.058Z,8.20
2022-12-14T04:24:23.778Z,8.10
2022-12-14T04:25:23.769Z,7.70
2022-12-14T04:26:23.767Z,8.10
2022-12-14T04:27:23.780Z,8.00
2022-12-14T04:28:23.732Z,7.80
2022-12-14T04:29:23.722Z,7.70
2022-12-14T04:30:23.710Z,7.70
2022-12-14T04:31:23.772Z,8.40
2022-12-14T04:32:23.759Z,7.80
2022-12-14T04:33:23.704Z,8.10
2022-12-14T04:34:23.694Z,8.20
2022-12-14T04:35:23.661Z,7.80
2022-12-14T04:36:23.651Z,7.60
2022-12-14T04:37:23.655Z,7.00
2022-12-14T04:38:23.631Z,7.40
2022-12-14T04:39:23.620Z,7.50
2022-12-14T04:40:23.608Z,7.80
2022-12-14T04:41:23.593Z,9.00
2022-12-14T04:42:23.605Z,9.70
2022-12-14T04:43:23.580Z,8.60
2022-12-14T04:44:23.569Z,7.80
2022-12-14T04:45:23.578Z,7.90
2022-12-14T04:46:23.583Z,7.80
2022-12-14T04:47:23.550Z,8.00
2022-12-14T04:48:23.533Z,8.50
2022-12-14T04:49:23.515Z,8.50
2022-12-14T04:50:23.500Z,9.00
2022-12-14T04:51:23.488Z,8.40
2022-12-14T04:52:23.532Z,8.40
2022-12-14T04:53:23.475Z,8.60
2022-12-14T04:54:23.461Z,7.90
2022-12-14T04:55:23.444Z,8.70
2022-12-14T04:56:23.439Z,8.70
2022-12-14T04:57:23.445Z,8.60
2022-12-14T04:58:23.433Z,8.40
2022-12-14T04:59:23.410Z,8.10
2022-12-14T05:00:23.400Z,8.00
2022-12-14T05:01:23.490Z,8.10
2022-12-14T05:02:23.544Z,8.70
2022-12-14T05:03:23.393Z,9.00
2022-12-14T05:04:23.358Z,8.40
2022-12-14T05:05:23.341Z,8.30
2022-12-14T05:06:23.355Z,8.50
2022-12-14T05:07:23.353Z,8.20
2022-12-14T05:08:23.314Z,8.30
2022-12-14T05:09:23.304Z,8.00
2022-12-14T05:10:23.317Z,7.90
2022-12-14T05:11:52.176Z,8.60
2022-12-14T05:12:23.290Z,8.70
2022-12-14T05:13:23.263Z,8.80
2022-12-14T05:14:23.248Z,8.40
2022-12-14T05:15:23.248Z,9.60
2022-12-14T05:16:23.289Z,7.70
2022-12-14T05:17:23.242Z,8.40
2022-12-14T05:18:23.220Z,8.10
2022-12-14T05:19:23.196Z,8.20
2022-12-14T05:20:23.201Z,8.10
2022-12-14T05:21:23.198Z,8.50
2022-12-14T05:22:23.182Z,7.70
2022-12-14T05:23:23.174Z,8.20
2022-12-14T05:24:23.161Z,9.00
2022-12-14T05:25:23.134Z,8.40
2022-12-14T05:26:23.134Z,9.00
2022-12-14T05:27:23.139Z,8.70
2022-12-14T05:28:23.096Z,7.60
2022-12-14T05:29:23.092Z,8.40
2022-12-14T05:30:23.140Z,7.90
2022-12-14T05:31:23.075Z,7.90
2022-12-14T05:32:23.126Z,8.50
2022-12-14T05:33:23.076Z,7.60
2022-12-14T05:34:23.070Z,7.80
2022-12-14T05:35:23.028Z,7.50
2022-12-14T05:36:23.026Z,7.80
2022-12-14T05:37:23.006Z,7.60
2022-12-14T05:38:23.015Z,7.30
2022-12-14T05:39:22.980Z,7.40
2022-12-14T05:40:22.983Z,6.40
2022-12-14T05:41:22.995Z,6.70
2022-12-14T05:42:22.963Z,6.90
2022-12-14T05:43:22.977Z,6.40
2022-12-14T05:44:22.947Z,6.60
2022-12-14T05:45:22.927Z,7.10
2022-12-14T05:46:22.979Z,7.10
2022-12-14T05:47:22.895Z,6.80
2022-12-14T05:48:22.906Z,7.00
2022-12-14T05:49:22.935Z,6.70
2022-12-14T05:50:22.898Z,6.30
2022-12-14T05:51:22.861Z,6.60
2022-12-14T05:52:22.855Z,6.20
2022-12-14T05:53:22.869Z,6.40
2022-12-14T05:54:22.824Z,6.80
2022-12-14T05:55:22.836Z,6.20
2022-12-14T05:56:22.807Z,6.20
2022-12-14T05:57:22.796Z,6.30
2022-12-14T05:58:22.806Z,5.90
2022-12-14T05:59:22.779Z,6.60
2022-12-14T06:00:22.775Z,6.10
2022-12-14T06:01:22.818Z,5.70
2022-12-14T06:02:22.953Z,5.70
2022-12-14T06:03:22.749Z,6.30
2022-12-14T06:04:22.742Z,6.20
2022-12-14T06:05:22.756Z,5.80
2022-12-14T06:06:22.695Z,6.20
2022-12-14T06:07:27.458Z,5.70
2022-12-14T06:08:22.706Z,5.10
2022-12-14T06:09:22.667Z,5.60
2022-12-14T06:10:22.700Z,6.60
2022-12-14T06:11:22.647Z,6.00
2022-12-14T06:12:22.700Z,5.90
2022-12-14T06:13:22.653Z,6.00
2022-12-14T06:14:22.610Z,6.40
2022-12-14T06:15:22.611Z,5.60
2022-12-14T06:16:22.684Z,6.00
2022-12-14T06:17:22.583Z,5.50
2022-12-14T06:18:22.636Z,5.70
2022-12-14T06:19:22.569Z,5.80
2022-12-14T06:20:22.565Z,5.40
2022-12-14T06:21:22.588Z,5.60
2022-12-14T06:22:22.522Z,6.00
2022-12-14T06:23:22.540Z,5.60
2022-12-14T06:24:22.558Z,6.30
2022-12-14T06:25:22.499Z,5.50
2022-12-14T06:26:22.496Z,5.70
2022-12-14T06:27:22.489Z,5.40
2022-12-14T06:28:22.497Z,5.50
2022-12-14T06:29:22.457Z,5.20
2022-12-14T06:30:22.460Z,5.40
2022-12-14T06:31:22.492Z,5.90
2022-12-14T06:32:22.470Z,5.50
2022-12-14T06:33:22.448Z,5.60
2022-12-14T06:34:28.184Z,6.00
2022-12-14T06:35:22.437Z,5.60
2022-12-14T06:36:22.382Z,5.30
2022-12-14T06:37:22.384Z,5.70
2022-12-14T06:38:22.433Z,5.70
2022-12-14T06:39:22.363Z,5.40
2022-12-14T06:40:22.358Z,5.50
2022-12-14T06:41:22.340Z,5.40
2022-12-14T06:42:22.316Z,5.00
2022-12-14T06:43:22.329Z,5.70
2022-12-14T06:44:22.292Z,5.80
2022-12-14T06:45:22.294Z,5.00
2022-12-14T06:46:22.324Z,5.60
2022-12-14T06:47:22.259Z,6.20
2022-12-14T06:48:22.266Z,6.00
2022-12-14T06:49:22.251Z,5.30
2022-12-14T06:50:22.240Z,4.90
2022-12-14T06:51:22.222Z,5.50
2022-12-14T06:52:26.720Z,5.20
2022-12-14T06:53:22.223Z,5.30
2022-12-14T06:54:22.209Z,5.40
2022-12-14T06:55:22.187Z,5.40
2022-12-14T06:56:22.199Z,5.60
2022-12-14T06:57:22.178Z,5.60
2022-12-14T06:58:22.163Z,5.60
2022-12-14T06:59:22.149Z,5.30
2022-12-14T07:00:22.129Z,5.60
2022-12-14T07:01:22.268Z,5.70
2022-12-14T07:02:22.365Z,5.50
2022-12-14T07:03:22.183Z,4.80
2022-12-14T07:04:22.089Z,5.30
2022-12-14T07:05:22.079Z,5.70
2022-12-14T07:06:22.072Z,5.20
2022-12-14T07:07:22.080Z,5.50
2022-12-14T07:08:22.090Z,5.60
2022-12-14T07:09:22.034Z,5.40
2022-12-14T07:10:22.058Z,5.80
2022-12-14T07:11:22.032Z,5.70
2022-12-14T07:12:22.003Z,5.70
2022-12-14T07:13:22.013Z,5.60
2022-12-14T07:14:21.975Z,4.60
2022-12-14T07:15:21.984Z,5.10
2022-12-14T07:16:22.063Z,5.30
2022-12-14T07:17:21.971Z,5.40
2022-12-14T07:18:21.976Z,5.50
2022-12-14T07:19:21.931Z,5.50
2022-12-14T07:20:21.917Z,5.20
2022-12-14T07:21:21.941Z,4.90
2022-12-14T07:22:21.902Z,5.20
2022-12-14T07:23:27.581Z,5.60
2022-12-14T07:24:21.889Z,5.20
2022-12-14T07:25:21.866Z,5.10
2022-12-14T07:26:21.868Z,5.60
2022-12-14T07:27:21.843Z,5.50
2022-12-14T07:28:21.854Z,5.00
2022-12-14T07:29:21.832Z,5.30
2022-12-14T07:30:21.851Z,5.40
2022-12-14T07:31:21.890Z,5.10
2022-12-14T07:32:21.813Z,6.20
2022-12-14T07:33:21.797Z,5.60
2022-12-14T07:34:21.779Z,5.60
2022-12-14T07:35:21.761Z,5.10
2022-12-14T07:36:21.763Z,5.00
2022-12-14T07:37:21.743Z,4.90
2022-12-14T07:38:21.774Z,4.90
2022-12-14T07:39:21.714Z,5.40
2022-12-14T07:40:21.704Z,5.40
2022-12-14T07:41:22.987Z,5.30
2022-12-14T07:42:21.690Z,5.20
2022-12-14T07:43:21.697Z,5.30
2022-12-14T07:44:21.693Z,4.50
2022-12-14T07:45:21.664Z,4.90
2022-12-14T07:46:21.720Z,5.00
2022-12-14T07:47:21.631Z,4.80
2022-12-14T07:48:21.639Z,5.40
2022-12-14T07:49:21.620Z,5.20
2022-12-14T07:50:21.597Z,5.10
2022-12-14T07:51:21.596Z,5.30
2022-12-14T07:52:21.588Z,5.10
2022-12-14T07:53:21.587Z,5.10
2022-12-14T07:54:21.569Z,5.00
2022-12-14T07:55:21.583Z,4.70
2022-12-14T07:56:21.556Z,5.20
2022-12-14T07:57:21.531Z,5.10
2022-12-14T07:58:21.525Z,5.60
2022-12-14T07:59:21.499Z,4.50
2022-12-14T08:00:21.484Z,4.70
2022-12-14T08:01:21.678Z,5.10
2022-12-14T08:02:21.588Z,5.30
2022-12-14T08:03:21.486Z,5.10
2022-12-14T08:04:21.522Z,5.60
2022-12-14T08:05:21.502Z,5.00
2022-12-14T08:06:21.442Z,5.30
2022-12-14T08:07:21.439Z,5.50
2022-12-14T08:08:21.439Z,4.90
2022-12-14T08:09:21.435Z,5.20
2022-12-14T08:10:21.389Z,4.70
2022-12-14T08:11:21.406Z,5.20
2022-12-14T08:12:21.369Z,5.40
2022-12-14T08:13:21.365Z,5.00
2022-12-14T08:14:21.367Z,5.10
2022-12-14T08:15:21.335Z,5.00
2022-12-14T08:16:21.366Z,4.60
2022-12-14T08:17:21.338Z,5.20
2022-12-14T08:18:21.323Z,5.70
2022-12-14T08:19:21.296Z,5.70
2022-12-14T08:20:21.282Z,5.30
2022-12-14T08:21:21.293Z,5.10
2022-12-14T08:22:21.266Z,5.20
2022-12-14T08:23:21.271Z,5.30
2022-12-14T08:24:21.260Z,5.50
2022-12-14T08:25:21.241Z,5.10
2022-12-14T08:26:21.220Z,5.30
2022-12-14T08:27:21.219Z,5.70
2022-12-14T08:28:21.263Z,5.30
2022-12-14T08:29:21.201Z,5.00
2022-12-14T08:30:21.184Z,5.40
2022-12-14T08:31:21.251Z,5.00
2022-12-14T08:32:21.160Z,5.20
2022-12-14T08:33:21.160Z,5.30
2022-12-14T08:34:21.139Z,4.70
2022-12-14T08:35:21.149Z,4.80
2022-12-14T08:36:21.128Z,4.60
2022-12-14T08:37:21.113Z,4.70
2022-12-14T08:38:21.103Z,4.80
2022-12-14T08:39:21.101Z,4.80
2022-12-14T08:40:21.083Z,5.00
2022-12-14T08:41:21.067Z,5.40
2022-12-14T08:42:21.114Z,5.30
2022-12-14T08:43:24.976Z,5.30
2022-12-14T08:44:21.035Z,5.00
2022-12-14T08:45:21.061Z,5.40
2022-12-14T08:46:21.054Z,5.10
2022-12-14T08:47:21.002Z,5.20
2022-12-14T08:48:21.026Z,5.70
2022-12-14T08:49:20.985Z,5.90
2022-12-14T08:50:20.972Z,6.20
2022-12-14T08:51:20.980Z,6.60
2022-12-14T08:52:20.957Z,5.80
2022-12-14T08:53:20.968Z,6.10
2022-12-14T08:54:20.934Z,6.50
2022-12-14T08:55:27.074Z,6.80
2022-12-14T08:56:20.925Z,6.50
2022-12-14T08:57:20.902Z,12.10
2022-12-14T08:58:20.909Z,10.00
2022-12-14T08:59:52.197Z,10.20
2022-12-14T09:00:20.892Z,11.20
2022-12-14T09:01:20.992Z,11.60
2022-12-14T09:02:20.957Z,12.20
2022-12-14T09:03:20.881Z,13.70
2022-12-14T09:04:20.835Z,15.40
2022-12-14T09:05:20.810Z,16.00
2022-12-14T09:06:20.813Z,16.00
2022-12-14T09:07:20.786Z,16.00
2022-12-14T09:08:20.796Z,16.70
2022-12-14T09:09:20.824Z,15.40
2022-12-14T09:10:20.807Z,15.60
2022-12-14T09:11:20.754Z,16.70
2022-12-14T09:12:20.743Z,16.70
2022-12-14T09:13:20.778Z,17.00
2022-12-14T09:14:20.714Z,16.50
2022-12-14T09:15:20.699Z,15.20
2022-12-14T09:16:20.737Z,17.80
2022-12-14T09:17:20.682Z,15.80
2022-12-14T09:18:20.694Z,17.70
2022-12-14T09:19:20.671Z,18.60
2022-12-14T09:20:20.670Z,16.40
2022-12-14T09:21:20.638Z,16.70
2022-12-14T09:22:21.677Z,15.70
2022-12-14T09:23:20.626Z,16.70
2022-12-14T09:24:20.630Z,16.60
2022-12-14T09:25:20.621Z,17.20
2022-12-14T09:26:20.644Z,16.40
2022-12-14T09:27:24.780Z,16.70
2022-12-14T09:28:51.797Z,16.70
2022-12-14T09:29:24.269Z,17.10
2022-12-14T09:30:26.859Z,15.40
2022-12-14T09:31:25.343Z,15.40
2022-12-14T09:32:20.543Z,16.10
2022-12-14T09:33:20.538Z,14.90
2022-12-14T09:34:20.527Z,16.10
2022-12-14T09:35:20.519Z,16.10
2022-12-14T09:36:20.493Z,17.30
2022-12-14T09:37:20.483Z,15.60
2022-12-14T09:38:20.470Z,16.50
2022-12-14T09:39:20.476Z,16.70
2022-12-14T09:40:20.486Z,17.00
2022-12-14T09:41:20.425Z,16.20
2022-12-14T09:42:20.422Z,17.70
2022-12-14T09:43:20.413Z,18.80
2022-12-14T09:44:20.421Z,18.10
2022-12-14T09:45:20.395Z,19.10
2022-12-14T09:46:20.419Z,18.70
2022-12-14T09:47:20.373Z,15.80
2022-12-14T09:48:20.371Z,15.10
2022-12-14T09:49:20.357Z,15.40
2022-12-14T09:50:20.363Z,15.80
2022-12-14T09:51:20.362Z,15.20
2022-12-14T09:52:20.309Z,16.00
2022-12-14T09:53:20.344Z,15.70
2022-12-14T09:54:20.309Z,15.60
2022-12-14T09:55:20.270Z,16.20
2022-12-14T09:56:20.271Z,16.10
2022-12-14T09:57:20.261Z,14.80
2022-12-14T09:58:20.254Z,15.20
2022-12-14T09:59:20.285Z,16.00
2022-12-14T10:00:20.233Z,15.60
2022-12-14T10:01:20.357Z,15.30
2022-12-14T10:02:35.988Z,15.10
2022-12-14T10:03:20.411Z,18.20
2022-12-14T10:04:20.231Z,18.50
2022-12-14T10:05:20.177Z,19.80
2022-12-14T10:06:20.171Z,19.30
2022-12-14T10:07:20.156Z,20.90
2022-12-14T10:08:20.203Z,23.00
2022-12-14T10:09:20.146Z,24.40
2022-12-14T10:10:20.132Z,24.30
2022-12-14T10:11:20.114Z,23.40
2022-12-14T10:12:20.102Z,24.30
2022-12-14T10:13:20.085Z,24.80
2022-12-14T10:14:20.140Z,25.60
2022-12-14T10:15:20.068Z,24.20
2022-12-14T10:16:20.147Z,25.30
2022-12-14T10:17:20.041Z,24.30
2022-12-14T10:18:49.431Z,24.30
2022-12-14T10:19:20.069Z,23.80
2022-12-14T10:20:20.037Z,23.80
2022-12-14T10:21:20.006Z,24.70
2022-12-14T10:22:20.010Z,25.50
2022-12-14T10:23:22.982Z,24.30
2022-12-14T10:24:19.988Z,23.80
2022-12-14T10:25:19.970Z,24.90
2022-12-14T10:26:19.953Z,24.70
2022-12-14T10:27:19.962Z,24.20
2022-12-14T10:28:19.960Z,24.80
2022-12-14T10:29:19.955Z,23.50
2022-12-14T10:30:19.907Z,22.50
2022-12-14T10:31:19.970Z,22.00
2022-12-14T10:32:19.881Z,22.70
2022-12-14T10:33:19.882Z,23.30
2022-12-14T10:34:19.877Z,24.10
2022-12-14T10:35:19.859Z,24.60
2022-12-14T10:36:19.846Z,23.70
2022-12-14T10:37:19.883Z,24.10
2022-12-14T10:38:19.830Z,23.20
2022-12-14T10:39:19.837Z,23.40
2022-12-14T10:40:29.297Z,25.60
2022-12-14T10:41:19.791Z,23.30
2022-12-14T10:42:19.779Z,22.40
2022-12-14T10:43:19.769Z,22.40
2022-12-14T10:44:19.800Z,23.00
2022-12-14T10:46:19.823Z,23.90
2022-12-14T10:47:19.730Z,25.00
2022-12-14T10:48:19.747Z,22.30
2022-12-14T10:49:19.727Z,24.00
2022-12-14T10:50:19.695Z,23.20
2022-12-14T10:51:19.706Z,24.90
2022-12-14T10:52:19.718Z,25.40
2022-12-14T10:53:19.664Z,24.80
2022-12-14T10:54:19.693Z,24.50
2022-12-14T10:55:19.645Z,25.70
2022-12-14T10:56:19.674Z,24.20
2022-12-14T10:57:19.667Z,22.20
2022-12-14T10:58:19.635Z,23.40
2022-12-14T10:59:19.619Z,23.90
2022-12-14T11:00:23.690Z,23.00
2022-12-14T11:01:19.668Z,23.50
2022-12-14T11:02:19.748Z,24.50
2022-12-14T11:03:19.661Z,25.30
2022-12-14T11:04:19.564Z,24.90
2022-12-14T11:05:19.531Z,23.00
2022-12-14T11:06:19.528Z,24.10
2022-12-14T11:07:19.517Z,25.00
2022-12-14T11:08:19.521Z,23.90
2022-12-14T11:09:19.525Z,24.80
2022-12-14T11:10:19.489Z,25.70
2022-12-14T11:11:19.889Z,23.60
2022-12-14T11:12:19.546Z,26.20
2022-12-14T11:13:19.449Z,27.70
2022-12-14T11:14:19.448Z,26.50
2022-12-14T11:15:19.433Z,28.60
2022-12-14T11:16:19.435Z,30.20
2022-12-14T11:17:19.552Z,31.30
2022-12-14T11:18:19.496Z,31.50
2022-12-14T11:19:19.393Z,39.70
2022-12-14T11:20:19.373Z,47.20
2022-12-14T11:21:19.365Z,40.10
2022-12-14T11:22:22.512Z,44.30
2022-12-14T11:23:19.338Z,38.40
2022-12-14T11:24:19.358Z,40.40
2022-12-14T11:25:19.336Z,43.30
2022-12-14T11:26:19.310Z,40.50
2022-12-14T11:27:19.292Z,37.80
2022-12-14T11:28:19.293Z,37.60
2022-12-14T11:29:19.293Z,36.00
2022-12-14T11:30:19.266Z,30.60
2022-12-14T11:31:19.352Z,31.80
2022-12-14T11:32:19.249Z,32.30
2022-12-14T11:33:19.247Z,32.10
2022-12-14T11:34:22.169Z,29.40
2022-12-14T11:35:19.212Z,29.60
2022-12-14T11:36:19.257Z,29.20
2022-12-14T11:37:19.212Z,31.20
2022-12-14T11:38:19.202Z,29.40
2022-12-14T11:39:19.186Z,29.40
2022-12-14T11:40:19.163Z,29.80
2022-12-14T11:41:19.150Z,27.00
2022-12-14T11:42:19.158Z,26.00
2022-12-14T11:43:19.144Z,28.00
2022-12-14T11:44:19.131Z,25.30
2022-12-14T11:45:19.142Z,27.90
2022-12-14T11:46:19.148Z,28.10
2022-12-14T11:47:19.071Z,25.80
2022-12-14T11:48:19.101Z,28.10
2022-12-14T11:49:19.117Z,26.70
2022-12-14T11:50:19.050Z,27.50
2022-12-14T11:51:19.051Z,27.30
2022-12-14T11:52:19.030Z,26.70
2022-12-14T11:53:19.087Z,26.20
2022-12-14T11:54:19.039Z,27.80
2022-12-14T11:55:24.620Z,28.60
2022-12-14T11:56:18.985Z,29.00
2022-12-14T11:57:18.984Z,27.00
2022-12-14T11:58:19.016Z,28.40
2022-12-14T11:59:18.971Z,28.40
2022-12-14T12:00:18.949Z,29.10
2022-12-14T12:01:18.981Z,28.20
2022-12-14T12:02:19.039Z,29.90
2022-12-14T12:03:19.063Z,28.70
2022-12-14T12:04:18.912Z,29.30
2022-12-14T12:05:18.909Z,29.00
2022-12-14T12:06:18.875Z,27.50
2022-12-14T12:07:18.869Z,29.00
2022-12-14T12:08:18.851Z,31.10
2022-12-14T12:09:18.859Z,31.90
2022-12-14T12:10:18.834Z,30.70
2022-12-14T12:11:18.821Z,29.90
2022-12-14T12:12:18.850Z,26.20
2022-12-14T12:13:18.810Z,27.00
2022-12-14T12:14:18.809Z,28.30
2022-12-14T12:15:18.786Z,27.90
2022-12-14T12:16:18.817Z,27.10
2022-12-14T12:17:18.759Z,28.40
2022-12-14T12:18:18.751Z,29.40
2022-12-14T12:19:18.779Z,27.30
2022-12-14T12:20:18.730Z,30.20
2022-12-14T12:21:18.732Z,28.50
2022-12-14T12:22:18.749Z,30.00
2022-12-14T12:23:18.695Z,30.80
2022-12-14T12:24:18.743Z,32.40
2022-12-14T12:25:29.646Z,34.00
2022-12-14T12:26:18.663Z,32.40
2022-12-14T12:27:18.654Z,30.20
2022-12-14T12:28:18.676Z,31.60
2022-12-14T12:29:18.666Z,31.90
2022-12-14T12:30:18.617Z,31.80
2022-12-14T12:31:18.681Z,32.10
2022-12-14T12:32:18.609Z,30.20
2022-12-14T12:33:18.578Z,29.40
2022-12-14T12:34:18.602Z,31.50
2022-12-14T12:35:18.558Z,34.10
2022-12-14T12:36:23.569Z,32.60
2022-12-14T12:37:27.093Z,32.40
2022-12-14T12:38:18.547Z,31.90
2022-12-14T12:39:18.531Z,33.00
2022-12-14T12:40:18.512Z,32.00
2022-12-14T12:41:18.514Z,29.70
2022-12-14T12:42:18.508Z,30.70
2022-12-14T12:43:18.535Z,30.80
2022-12-14T12:44:18.537Z,32.00
2022-12-14T12:45:18.457Z,31.40
2022-12-14T12:46:18.496Z,30.70
2022-12-14T12:47:32.331Z,29.40
2022-12-14T12:48:18.435Z,29.50
2022-12-14T12:49:18.425Z,28.40
2022-12-14T12:50:18.412Z,28.00
2022-12-14T12:51:18.471Z,29.70
2022-12-14T12:52:18.386Z,28.70
2022-12-14T12:53:18.355Z,29.70
2022-12-14T12:54:18.409Z,32.10
2022-12-14T12:55:18.350Z,29.70
2022-12-14T12:56:18.339Z,31.10
2022-12-14T12:57:18.336Z,29.70
2022-12-14T12:58:18.320Z,30.00
2022-12-14T12:59:18.334Z,30.50
2022-12-14T13:00:18.328Z,29.60
2022-12-14T13:01:18.386Z,29.30
2022-12-14T13:02:18.478Z,30.20
2022-12-14T13:03:18.384Z,32.30